Time;durP1;ratioP1;P1;durP2;ratioP2;P2;SDS_P1;SDS_P2;PMS_P1;PMS_P2;Temp;Humidity;BMP_temperature;BMP_pressure;BME280_temperature;BME280_humidity;BME280_pressure;Samples;Min_cycle;Max_cycle;Signal;HPM_P1;HPM_P2
2022/10/14 00:01:10;;;;;;;;;;;11.60;99.90;;;10.15;100.00;100723.63;4937306;28;19954;-79
2022/10/14 00:03:37;;;;;;;;;;;11.50;99.90;;;10.10;100.00;100724.28;4927578;28;19911;-79
2022/10/14 00:06:08;;;;;;;;;;;11.50;99.90;;;10.17;100.00;100719.63;4929345;28;20389;-80
2022/10/14 00:08:34;;;;;;;;;;;11.50;99.90;;;10.15;100.00;100713.56;4939194;28;20108;-80
2022/10/14 00:11:08;;;;;;;;;;;11.60;99.90;;;10.10;100.00;100697.00;4927279;28;19923;-80
2022/10/14 00:13:34;;;;;;;;;;;11.60;99.90;;;10.18;100.00;100715.84;4925206;28;19984;-80
2022/10/14 00:16:01;;;;;;;;;;;11.60;99.90;;;10.24;100.00;100718.78;4936394;28;19918;-79
2022/10/14 00:18:27;;;;;;;;;;;11.60;99.90;;;10.21;100.00;100715.44;4933013;28;20340;-80
2022/10/14 00:20:55;;;;;;;;;;;11.60;99.90;;;10.22;100.00;100716.28;4928996;28;19926;-80
2022/10/14 00:23:20;;;;;;;;;;;11.60;99.90;;;10.33;100.00;100714.75;4932856;29;20100;-79
2022/10/14 00:25:46;;;;;;;;;;;11.60;99.90;;;10.31;100.00;100714.16;4931426;28;20409;-79
2022/10/14 00:28:11;;;;;;;;;;;11.60;99.90;;;10.35;100.00;100715.41;4930740;28;19919;-79
2022/10/14 00:30:37;;;;;;;;;;;11.70;99.90;;;10.36;100.00;100714.38;4941551;28;19929;-79
2022/10/14 00:33:03;;;;;;;;;;;11.70;99.90;;;10.39;100.00;100713.94;4931576;28;19918;-80
2022/10/14 00:35:30;;;;;;;;;;;11.70;99.90;;;10.37;100.00;100702.41;4940180;28;19949;-80
2022/10/14 00:37:57;;;;;;;;;;;11.70;99.90;;;10.37;100.00;100705.13;4948725;28;19961;-79
2022/10/14 00:40:24;;;;;;;;;;;11.70;99.90;;;10.39;100.00;100704.91;4940661;28;19926;-80
2022/10/14 00:42:50;;;;;;;;;;;11.70;99.90;;;10.40;100.00;100703.84;4935420;28;20010;-80
2022/10/14 00:45:21;;;;;;;;;;;11.70;99.90;;;10.45;100.00;100712.25;4937411;28;20001;-80
2022/10/14 00:47:51;;;;;;;;;;;11.80;99.90;;;10.42;100.00;100701.78;4933590;28;19919;-80
2022/10/14 00:50:18;;;;;;;;;;;11.80;99.90;;;10.43;100.00;100712.47;4942721;28;19930;-79
2022/10/14 00:52:44;;;;;;;;;;;11.70;99.90;;;10.42;100.00;100710.81;4944770;29;19993;-80
2022/10/14 00:55:17;;;;;;;;;;;11.80;99.90;;;10.43;100.00;100700.72;4934528;28;20403;-80
2022/10/14 00:57:43;;;;;;;;;;;11.80;99.90;;;10.44;100.00;100707.84;4934304;29;20452;-81
2022/10/14 01:00:15;;;;;;;;;;;11.80;99.90;;;10.46;100.00;100706.59;4941641;28;20373;-80
2022/10/14 01:02:41;;;;;;;;;;;11.80;99.90;;;10.45;100.00;100704.06;4933625;28;19918;-81
2022/10/14 01:05:09;;;;;;;;;;;11.80;99.90;;;10.46;100.00;100698.41;4933891;28;19951;-80
2022/10/14 01:07:44;;;;;;;;;;;11.80;99.90;;;10.45;100.00;100709.53;4942690;28;19919;-81
2022/10/14 01:10:28;;;;;;;;;;;11.80;99.90;;;10.45;100.00;100699.47;4933712;28;19923;-81
2022/10/14 01:13:09;;;;;;;;;;;11.80;99.90;;;10.45;100.00;100696.72;4940319;29;19952;-81
2022/10/14 01:15:41;;;;;;;;;;;11.80;99.90;;;10.47;100.00;100700.09;4945392;28;19954;-81
2022/10/14 01:18:39;;;;;;;;;;;11.80;99.90;;;10.50;100.00;100696.09;4955216;28;19918;-81
2022/10/14 01:21:14;;;;;;;;;;;11.80;99.90;;;10.50;100.00;100696.91;4928203;28;20358;-81
2022/10/14 01:24:04;;;;;;;;;;;11.80;99.90;;;10.54;100.00;100694.63;4937362;28;19911;-82
2022/10/14 01:26:54;;;;;;;;;;;11.80;99.90;;;10.47;100.00;100685.59;4933335;28;20341;-81
2022/10/14 01:29:48;;;;;;;;;;;11.90;99.90;;;10.58;100.00;100695.00;4936551;28;19926;-80
2022/10/14 01:32:27;;;;;;;;;;;11.90;99.90;;;10.56;100.00;100695.22;4932613;29;20025;-80
2022/10/14 01:35:31;;;;;;;;;;;11.90;99.90;;;10.58;100.00;100692.28;4938255;28;20294;-80
2022/10/14 01:38:09;;;;;;;;;;;11.90;99.90;;;10.62;100.00;100699.81;4930813;29;20392;-81
2022/10/14 01:40:41;;;;;;;;;;;11.90;99.90;;;10.63;100.00;100685.13;4940123;28;19915;-81
2022/10/14 01:43:09;;;;;;;;;;;11.90;99.90;;;10.62;100.00;100685.34;4931864;29;19922;-81
2022/10/14 01:45:38;;;;;;;;;;;11.90;99.90;;;10.61;100.00;100680.97;4931353;28;20398;-80
2022/10/14 01:48:05;;;;;;;;;;;11.90;99.90;;;10.64;100.00;100672.34;4939660;28;19943;-82
2022/10/14 01:50:35;;;;;;;;;;;11.90;99.90;;;10.72;100.00;100676.69;4931719;28;19929;-81
2022/10/14 01:53:02;;;;;;;;;;;12.00;99.90;;;10.70;100.00;100673.34;4933952;29;19950;-82
2022/10/14 01:55:34;;;;;;;;;;;12.00;99.90;;;10.69;100.00;100674.38;4952695;28;19926;-82
2022/10/14 01:58:01;;;;;;;;;;;12.00;99.90;;;10.67;100.00;100674.63;4927656;28;19919;-82
2022/10/14 02:00:27;;;;;;;;;;;12.00;99.90;;;10.65;100.00;100672.09;4947758;28;19977;-82
2022/10/14 02:02:52;;;;;;;;;;;11.90;99.90;;;10.65;100.00;100669.38;4941266;28;19923;-82
2022/10/14 02:05:24;;;;;;;;;;;12.00;99.90;;;10.64;100.00;100666.88;4954420;28;19950;-82
2022/10/14 02:08:15;;;;;;;;;;;12.00;99.90;;;10.71;100.00;100672.28;4934420;28;19940;-82
2022/10/14 02:11:03;;;;;;;;;;;12.00;99.90;;;10.69;100.00;100668.94;4928649;28;19926;-83
2022/10/14 02:13:56;;;;;;;;;;;12.00;99.90;;;10.65;100.00;100676.72;4926022;28;19911;-82
2022/10/14 02:16:33;;;;;;;;;;;12.00;99.90;;;10.67;100.00;100680.09;4933865;29;19946;-82
2022/10/14 02:19:24;;;;;;;;;;;12.00;99.90;;;10.68;100.00;100676.28;4943899;28;19919;-82
2022/10/14 02:22:00;;;;;;;;;;;12.00;99.90;;;10.65;100.00;100668.56;4950818;28;20376;-82
2022/10/14 02:24:34;;;;;;;;;;;12.00;99.90;;;10.65;100.00;100663.91;4935132;29;19918;-82
2022/10/14 02:27:06;;;;;;;;;;;12.00;99.90;;;10.68;100.00;100668.13;4936702;28;19923;-78
2022/10/14 02:29:34;;;;;;;;;;;12.00;99.90;;;10.70;100.00;100671.47;4933088;28;19927;-83
2022/10/14 02:32:01;;;;;;;;;;;12.00;99.90;;;10.71;100.00;100662.22;4939254;29;19927;-81
2022/10/14 02:34:27;;;;;;;;;;;12.00;99.90;;;10.73;100.00;100670.16;4936896;28;19954;-82
2022/10/14 02:36:54;;;;;;;;;;;12.10;99.90;;;10.64;100.00;100650.50;4930805;28;19954;-82
2022/10/14 02:39:29;;;;;;;;;;;12.10;99.90;;;10.76;100.00;100664.31;4933364;28;19933;-81
2022/10/14 02:41:56;;;;;;;;;;;12.10;99.90;;;10.73;100.00;100659.25;4936281;29;19958;-82
2022/10/14 02:44:22;;;;;;;;;;;12.10;99.90;;;10.80;100.00;100662.81;4950007;28;19915;-80
2022/10/14 02:46:48;;;;;;;;;;;12.10;99.90;;;10.76;100.00;100662.41;4937475;28;19925;-81
2022/10/14 02:49:15;;;;;;;;;;;12.10;99.90;;;10.72;100.00;100650.25;4944159;28;19929;-80
2022/10/14 02:51:42;;;;;;;;;;;12.10;99.90;;;10.82;100.00;100649.78;4946908;29;20013;-81
2022/10/14 02:54:10;;;;;;;;;;;12.10;99.90;;;10.80;100.00;100651.88;4940248;29;19926;-83
2022/10/14 02:56:36;;;;;;;;;;;12.10;99.90;;;10.82;100.00;100648.94;4934649;28;19914;-80
2022/10/14 02:59:01;;;;;;;;;;;12.20;99.90;;;10.81;100.00;100647.25;4939641;28;19926;-80
2022/10/14 03:01:28;;;;;;;;;;;12.20;99.90;;;10.82;100.00;100640.75;4953961;28;19919;-80
2022/10/14 03:03:54;;;;;;;;;;;12.20;99.90;;;10.86;100.00;100647.44;4935169;28;19919;-80
2022/10/14 03:06:20;;;;;;;;;;;12.20;99.90;;;10.87;100.00;100640.91;4939025;28;19949;-82
2022/10/14 03:08:46;;;;;;;;;;;12.20;99.90;;;10.87;100.00;100636.31;4938537;28;19942;-81
2022/10/14 03:11:12;;;;;;;;;;;12.20;99.90;;;10.93;100.00;100643.59;4935546;28;20290;-78
2022/10/14 03:13:38;;;;;;;;;;;12.20;99.90;;;10.96;100.00;100639.63;4944077;28;20397;-79
2022/10/14 03:16:04;;;;;;;;;;;12.30;99.90;;;10.95;100.00;100637.94;4934804;28;20010;-76
2022/10/14 03:18:31;;;;;;;;;;;12.30;99.90;;;10.96;100.00;100642.34;4941927;28;20005;-80
2022/10/14 03:21:04;;;;;;;;;;;12.30;99.90;;;11.00;100.00;100646.31;4949519;28;20001;-80
2022/10/14 03:23:37;;;;;;;;;;;12.30;99.90;;;10.99;100.00;100638.31;4929592;28;20259;-80
2022/10/14 03:26:02;;;;;;;;;;;12.30;99.90;;;11.03;100.00;100650.50;4943795;28;19946;-81
2022/10/14 03:28:34;;;;;;;;;;;12.30;99.90;;;11.05;100.00;100648.38;4954439;28;19943;-79
2022/10/14 03:31:22;;;;;;;;;;;12.30;99.90;;;11.02;100.00;100646.91;4934678;28;19923;-79
2022/10/14 03:34:02;;;;;;;;;;;12.40;99.90;;;11.02;100.00;100649.66;4942685;28;19915;-77
2022/10/14 03:36:29;;;;;;;;;;;12.40;99.90;;;11.00;100.00;100640.84;4937627;28;19925;-79
2022/10/14 03:38:56;;;;;;;;;;;12.30;99.90;;;11.01;100.00;100636.25;4941451;28;20156;-78
2022/10/14 03:41:51;;;;;;;;;;;12.30;99.90;;;11.02;100.00;100630.53;4946153;28;20269;-79
2022/10/14 03:44:21;;;;;;;;;;;12.40;99.90;;;11.03;100.00;100640.41;4937561;28;20305;-79
2022/10/14 03:47:05;;;;;;;;;;;12.30;99.90;;;11.03;100.00;100639.59;4937842;29;19961;-79
2022/10/14 03:49:32;;;;;;;;;;;12.40;99.90;;;11.02;100.00;100637.91;4951393;28;19923;-78
2022/10/14 03:52:05;;;;;;;;;;;12.30;99.90;;;10.99;100.00;100632.88;4947353;28;20037;-77
2022/10/14 03:54:34;;;;;;;;;;;12.30;99.90;;;10.98;100.00;100628.47;4934946;28;19922;-79
2022/10/14 03:56:59;;;;;;;;;;;12.30;99.90;;;10.98;100.00;100634.78;4938092;28;20405;-84
2022/10/14 03:59:30;;;;;;;;;;;12.30;99.90;;;10.96;100.00;100627.84;4952791;28;19919;-83
2022/10/14 04:01:56;;;;;;;;;;;12.30;99.90;;;11.02;100.00;100636.00;4945785;28;19945;-82
2022/10/14 04:04:23;;;;;;;;;;;12.30;99.90;;;11.04;100.00;100627.59;4939843;28;19974;-82
2022/10/14 04:06:49;;;;;;;;;;;12.30;99.90;;;11.03;100.00;100626.75;4933088;28;19918;-84
2022/10/14 04:09:18;;;;;;;;;;;12.30;99.90;;;10.98;100.00;100621.13;4942849;28;19933;-83
2022/10/14 04:11:43;;;;;;;;;;;12.30;99.90;;;10.98;100.00;100625.72;4944177;28;19922;-83
2022/10/14 04:14:23;;;;;;;;;;;12.30;99.90;;;10.95;100.00;100616.13;4930419;29;20289;-84
2022/10/14 04:16:49;;;;;;;;;;;12.20;99.90;;;10.94;100.00;100611.72;4928403;28;19918;-83
2022/10/14 04:19:14;;;;;;;;;;;12.30;99.90;;;10.94;100.00;100623.44;4943489;29;19981;-83
2022/10/14 04:21:41;;;;;;;;;;;12.30;99.90;;;10.88;100.00;100618.88;4945123;28;19919;-83
2022/10/14 04:24:08;;;;;;;;;;;12.20;99.90;;;10.85;100.00;100621.19;4942879;28;19918;-82
2022/10/14 04:26:51;;;;;;;;;;;12.20;99.90;;;10.78;100.00;100615.81;4948228;28;19958;-83
2022/10/14 04:29:24;;;;;;;;;;;12.10;99.90;;;10.74;100.00;100623.56;4933005;28;19919;-81
2022/10/14 04:32:02;;;;;;;;;;;12.10;99.90;;;10.73;100.00;100619.19;4945825;29;19922;-82
2022/10/14 04:34:28;;;;;;;;;;;12.10;99.90;;;10.74;100.00;100620.84;4943362;28;19925;-82
2022/10/14 04:36:54;;;;;;;;;;;12.10;99.90;;;10.79;100.00;100625.66;4941380;28;20006;-81
2022/10/14 04:39:30;;;;;;;;;;;12.10;99.90;;;10.83;100.00;100626.03;4940548;28;19919;-80
2022/10/14 04:41:56;;;;;;;;;;;12.20;99.90;;;10.87;100.00;100621.81;4939271;28;19918;-80
2022/10/14 04:44:22;;;;;;;;;;;12.20;99.90;;;10.89;100.00;100633.38;4943847;28;20293;-82
2022/10/14 04:46:52;;;;;;;;;;;12.20;99.90;;;10.89;100.00;100626.00;4958108;28;19969;-81
2022/10/14 04:49:21;;;;;;;;;;;12.20;99.90;;;10.90;100.00;100624.94;4939620;28;20382;-80
2022/10/14 04:51:56;;;;;;;;;;;12.20;99.90;;;10.85;100.00;100626.66;4948433;28;19922;-80
2022/10/14 04:54:34;;;;;;;;;;;12.20;99.90;;;10.82;100.00;100624.38;4946693;28;19923;-80
2022/10/14 04:57:01;;;;;;;;;;;12.20;99.90;;;10.76;100.00;100616.00;4931695;28;19923;-80
2022/10/14 04:59:28;;;;;;;;;;;12.10;99.90;;;10.65;100.00;100617.53;4952934;28;19927;-81
2022/10/14 05:02:08;;;;;;;;;;;12.00;99.90;;;10.53;100.00;100621.16;4931532;28;19945;-80
2022/10/14 05:04:39;;;;;;;;;;;11.90;99.90;;;10.38;100.00;100610.50;4939605;29;19933;-79
2022/10/14 05:07:08;;;;;;;;;;;11.70;99.90;;;10.25;100.00;100608.66;4963821;28;20074;-78
2022/10/14 05:09:35;;;;;;;;;;;11.60;99.90;;;10.17;100.00;100605.13;4931325;28;20009;-78
2022/10/14 05:12:03;;;;;;;;;;;11.50;99.90;;;10.07;100.00;100604.72;4943079;28;20381;-78
2022/10/14 05:14:39;;;;;;;;;;;11.40;99.90;;;10.03;100.00;100604.34;4953408;28;20013;-79
2022/10/14 05:17:14;;;;;;;;;;;11.40;99.90;;;9.95;100.00;100596.41;4939416;28;19919;-79
2022/10/14 05:19:39;;;;;;;;;;;11.30;99.90;;;9.85;100.00;100599.56;4946573;28;19931;-79
2022/10/14 05:22:05;;;;;;;;;;;11.30;99.90;;;9.81;100.00;100595.56;4935937;28;19922;-79
2022/10/14 05:24:35;;;;;;;;;;;11.20;99.90;;;9.69;100.00;100591.84;4956383;28;19922;-78
2022/10/14 05:27:01;;;;;;;;;;;11.00;99.90;;;9.63;100.00;100585.34;4946697;28;20306;-79
2022/10/14 05:29:29;;;;;;;;;;;11.00;99.90;;;9.55;100.00;100589.16;4945678;28;19914;-79
2022/10/14 05:31:55;;;;;;;;;;;10.90;99.90;;;9.46;100.00;100593.97;4953496;28;19926;-79
2022/10/14 05:34:37;;;;;;;;;;;10.80;99.90;;;9.39;100.00;100598.56;4952863;28;20391;-79
2022/10/14 05:37:07;;;;;;;;;;;10.80;99.90;;;9.39;100.00;100605.91;4949245;28;19918;-79
2022/10/14 05:39:40;;;;;;;;;;;10.70;99.90;;;9.34;100.00;100590.19;4963999;28;19918;-77
2022/10/14 05:42:06;;;;;;;;;;;10.80;99.90;;;9.48;100.00;100610.09;4932804;28;19991;-76
2022/10/14 05:44:33;;;;;;;;;;;10.90;99.90;;;9.53;100.00;100618.47;4943245;28;20323;-77
2022/10/14 05:46:59;;;;;;;;;;;10.90;99.90;;;9.60;100.00;100616.59;4957406;28;19925;-82
2022/10/14 05:49:25;;;;;;;;;;;11.00;99.90;;;9.64;100.00;100606.94;4951164;28;19922;-79
2022/10/14 05:51:54;;;;;;;;;;;11.00;99.90;;;9.71;100.00;100612.38;4949257;28;19966;-79
2022/10/14 05:54:22;;;;;;;;;;;11.10;99.90;;;9.73;100.00;100614.88;4941528;28;19961;-82
2022/10/14 05:56:50;;;;;;;;;;;11.10;99.90;;;9.80;100.00;100612.97;4942109;28;20405;-81
2022/10/14 05:59:18;;;;;;;;;;;11.20;99.90;;;9.87;100.00;100610.25;4941200;28;19925;-80
2022/10/14 06:01:44;;;;;;;;;;;11.20;99.90;;;9.87;100.00;100605.66;4927049;29;19930;-80
2022/10/14 06:04:19;;;;;;;;;;;11.30;99.90;;;9.82;100.00;100601.88;4933914;29;19922;-80
2022/10/14 06:06:45;;;;;;;;;;;11.20;99.90;;;9.67;100.00;100599.41;4963101;28;19941;-80
2022/10/14 06:09:11;;;;;;;;;;;11.10;99.90;;;9.56;100.00;100604.44;4952485;28;20279;-79
2022/10/14 06:11:37;;;;;;;;;;;11.00;99.90;;;9.52;100.00;100595.00;4948692;29;20333;-80
2022/10/14 06:14:02;;;;;;;;;;;11.00;99.90;;;9.70;100.00;100607.13;4946638;28;20009;-80
2022/10/14 06:16:28;;;;;;;;;;;11.10;99.90;;;9.84;100.00;100606.06;4938877;28;20017;-80
2022/10/14 06:18:54;;;;;;;;;;;11.20;99.90;;;9.96;100.00;100605.41;4938580;28;19919;-80
2022/10/14 06:21:21;;;;;;;;;;;11.30;99.90;;;10.03;100.00;100604.34;4942784;28;20412;-80
2022/10/14 06:23:47;;;;;;;;;;;11.40;99.90;;;10.11;100.00;100605.16;4938852;28;20027;-80
2022/10/14 06:26:12;;;;;;;;;;;11.50;99.90;;;10.12;100.00;100596.78;4935838;28;19981;-80
2022/10/14 06:28:38;;;;;;;;;;;11.50;99.90;;;10.15;100.00;100599.06;4931436;28;19949;-80
2022/10/14 06:31:04;;;;;;;;;;;11.50;99.90;;;10.19;100.00;100599.44;4933745;28;19923;-80
2022/10/14 06:33:30;;;;;;;;;;;11.60;99.90;;;10.24;100.00;100601.53;4935060;28;20370;-78
2022/10/14 06:35:56;;;;;;;;;;;11.60;99.90;;;10.28;100.00;100605.50;4948848;28;19914;-80
2022/10/14 06:38:22;;;;;;;;;;;11.60;99.90;;;10.27;100.00;100596.50;4941678;28;20315;-79
2022/10/14 06:40:51;;;;;;;;;;;11.70;99.90;;;10.38;100.00;100597.72;4939644;28;19970;-79
2022/10/14 06:43:18;;;;;;;;;;;11.70;99.90;;;10.49;100.00;100596.22;4932899;28;20043;-79
2022/10/14 06:45:43;;;;;;;;;;;11.80;99.90;;;10.57;100.00;100603.31;4932079;28;19992;-80
2022/10/14 06:48:09;;;;;;;;;;;11.90;99.90;;;10.65;100.00;100592.97;4928517;28;19954;-80
2022/10/14 06:50:35;;;;;;;;;;;11.90;99.90;;;10.73;100.00;100594.63;4938212;28;20408;-79
2022/10/14 06:53:01;;;;;;;;;;;12.10;99.90;;;10.80;100.00;100591.84;4925467;28;19919;-80
2022/10/14 06:55:27;;;;;;;;;;;12.10;99.90;;;10.92;100.00;100590.09;4932358;28;19919;-79
2022/10/14 06:57:53;;;;;;;;;;;12.20;99.90;;;11.01;100.00;100600.75;4933563;28;19922;-78
2022/10/14 07:00:19;;;;;;;;;;;12.30;99.90;;;11.13;100.00;100603.56;4926426;28;19970;-79
2022/10/14 07:02:45;;;;;;;;;;;12.40;99.90;;;11.22;100.00;100597.63;4938034;28;19927;-81
2022/10/14 07:05:11;;;;;;;;;;;12.50;99.90;;;11.32;100.00;100599.03;4940805;28;19922;-80
2022/10/14 07:07:37;;;;;;;;;;;12.60;99.90;;;11.37;100.00;100600.03;4937493;28;19989;-81
2022/10/14 07:10:03;;;;;;;;;;;12.70;99.90;;;11.44;100.00;100607.34;4931113;28;19930;-80
2022/10/14 07:12:29;;;;;;;;;;;12.80;99.90;;;11.53;100.00;100606.00;4935776;28;19922;-80
2022/10/14 07:14:54;;;;;;;;;;;12.90;99.90;;;11.61;100.00;100608.44;4929224;28;19982;-80
2022/10/14 07:17:20;;;;;;;;;;;13.00;99.90;;;11.79;100.00;100610.34;4932850;28;19929;-80
2022/10/14 07:19:46;;;;;;;;;;;13.10;99.90;;;11.84;100.00;100608.84;4931985;28;20409;-80
2022/10/14 07:22:11;;;;;;;;;;;13.20;99.90;;;12.03;100.00;100599.63;4939313;28;19994;-80
2022/10/14 07:24:37;;;;;;;;;;;13.40;99.90;;;12.24;100.00;100613.91;4931828;28;20389;-81
2022/10/14 07:27:03;;;;;;;;;;;13.50;99.90;;;12.30;100.00;100610.25;4943662;28;20054;-81
2022/10/14 07:29:29;;;;;;;;;;;13.60;99.90;;;12.26;100.00;100611.75;4934518;28;20607;-80
2022/10/14 07:31:55;;;;;;;;;;;13.60;99.90;;;12.28;100.00;100617.03;4940601;28;20022;-80
2022/10/14 07:34:21;;;;;;;;;;;13.60;99.90;;;12.31;100.00;100611.09;4933996;28;20400;-82
2022/10/14 07:36:46;;;;;;;;;;;13.60;99.90;;;12.38;100.00;100617.31;4934345;28;20471;-81
2022/10/14 07:39:12;;;;;;;;;;;13.60;99.90;;;12.46;100.00;100605.22;4952670;28;20017;-79
2022/10/14 07:41:38;;;;;;;;;;;13.80;99.90;;;12.63;100.00;100610.88;4937821;28;20013;-80
2022/10/14 07:44:07;;;;;;;;;;;13.90;99.90;;;12.68;100.00;100604.72;4936679;28;19919;-85
2022/10/14 07:46:39;;;;;;;;;;;14.00;99.90;;;12.88;100.00;100609.91;4944419;28;20440;-82
2022/10/14 07:49:09;;;;;;;;;;;14.20;99.90;;;12.97;100.00;100605.75;4954935;28;19919;-82
2022/10/14 07:51:35;;;;;;;;;;;14.30;99.90;;;13.19;100.00;100610.69;4958621;28;19922;-83
2022/10/14 07:54:03;;;;;;;;;;;14.40;99.90;;;13.49;100.00;100609.81;4942550;28;20465;-81
2022/10/14 07:56:29;;;;;;;;;;;14.70;99.90;;;13.77;100.00;100620.06;4938399;28;19930;-81
2022/10/14 07:58:55;;;;;;;;;;;14.90;99.90;;;13.97;100.00;100626.25;4939422;28;20341;-80
2022/10/14 08:01:20;;;;;;;;;;;15.20;99.90;;;13.91;100.00;100619.81;4945808;28;19926;-81
2022/10/14 08:03:47;;;;;;;;;;;15.30;99.90;;;13.84;100.00;100613.63;4931881;28;19925;-82
2022/10/14 08:06:13;;;;;;;;;;;15.30;99.90;;;13.82;100.00;100613.88;4934790;28;19919;-83
2022/10/14 08:08:40;;;;;;;;;;;15.10;99.90;;;13.80;100.00;100618.78;4938186;28;20031;-84
2022/10/14 08:11:10;;;;;;;;;;;15.10;99.90;;;13.73;100.00;100618.88;4935111;28;19929;-83
2022/10/14 08:13:37;;;;;;;;;;;15.10;99.90;;;13.80;100.00;100621.53;4933223;28;20247;-81
2022/10/14 08:16:12;;;;;;;;;;;15.10;99.90;;;13.94;100.00;100613.88;4933899;28;20295;-79
2022/10/14 08:18:38;;;;;;;;;;;15.20;99.90;;;14.16;100.00;100614.06;4932873;28;19942;-77
2022/10/14 08:21:04;;;;;;;;;;;15.30;99.90;;;14.21;100.00;100616.91;4939618;28;19961;-78
2022/10/14 08:23:31;;;;;;;;;;;15.50;99.90;;;14.49;100.00;100612.53;4939253;28;19919;-78
2022/10/14 08:25:57;;;;;;;;;;;15.70;99.90;;;14.79;100.00;100618.91;4943143;28;20416;-79
2022/10/14 08:28:23;;;;;;;;;;;15.90;99.90;;;15.13;100.00;100616.22;4929430;28;19922;-78
2022/10/14 08:30:51;;;;;;;;;;;16.30;99.90;;;15.09;100.00;100604.88;4926627;28;20456;-79
2022/10/14 08:33:17;;;;;;;;;;;16.40;99.90;;;15.17;100.00;100600.09;4931882;28;19922;-80
2022/10/14 08:35:43;;;;;;;;;;;16.50;99.90;;;15.42;100.00;100585.09;4948021;28;20021;-81
2022/10/14 08:38:09;;;;;;;;;;;16.60;99.90;;;15.22;98.75;100587.25;4929146;28;19926;-80
2022/10/14 08:40:53;;;;;;;;;;;16.70;99.90;;;14.82;100.00;100594.53;4932310;28;20044;-81
2022/10/14 08:43:29;;;;;;;;;;;16.50;99.90;;;14.72;100.00;100596.25;4935991;28;20295;-79
2022/10/14 08:46:04;;;;;;;;;;;16.30;99.90;;;14.58;100.00;100591.03;4935484;28;20413;-81
2022/10/14 08:48:32;;;;;;;;;;;16.10;99.90;;;14.72;100.00;100591.59;4933015;28;19927;-81
2022/10/14 08:51:07;;;;;;;;;;;16.10;99.90;;;14.87;100.00;100584.72;4931197;28;19978;-78
2022/10/14 08:53:42;;;;;;;;;;;16.20;99.90;;;14.70;97.64;100569.00;4933012;28;20045;-76
2022/10/14 08:56:10;;;;;;;;;;;16.20;99.90;;;14.81;97.49;100579.13;4933977;28;19985;-79
2022/10/14 08:58:40;;;;;;;;;;;16.20;99.90;;;15.18;95.88;100579.75;4931657;28;19935;-78
2022/10/14 09:01:28;;;;;;;;;;;16.40;99.90;;;14.87;97.78;100569.06;4939660;28;20336;-78
2022/10/14 09:04:12;;;;;;;;;;;16.30;99.90;;;14.85;98.02;100570.38;4937419;28;19919;-77
2022/10/14 09:06:41;;;;;;;;;;;16.30;99.90;;;14.84;97.33;100569.56;4936218;28;20315;-78
2022/10/14 09:09:39;;;;;;;;;;;16.20;99.90;;;15.04;96.99;100569.09;4927209;28;20258;-81
2022/10/14 09:12:13;;;;;;;;;;;16.40;99.90;;;14.98;96.81;100559.09;4935170;28;20061;-79
2022/10/14 09:14:43;;;;;;;;;;;16.50;99.90;;;14.97;95.21;100551.94;4941333;28;21788;-78
2022/10/14 09:17:20;;;;;;;;;;;16.50;99.90;;;15.33;95.08;100568.19;4937103;28;20108;-79
2022/10/14 09:19:57;;;;;;;;;;;16.60;99.90;;;15.77;89.32;100565.50;4937615;28;19923;-79
2022/10/14 09:22:23;;;;;;;;;;;16.90;99.90;;;15.78;90.28;100556.22;4928174;28;20176;-78
2022/10/14 09:24:49;;;;;;;;;;;17.10;99.90;;;15.74;86.63;100562.47;4936317;28;19926;-81
2022/10/14 09:27:17;;;;;;;;;;;17.20;99.90;;;15.73;86.61;100564.38;4933395;28;19957;-78
2022/10/14 09:29:47;;;;;;;;;;;17.20;99.90;;;15.94;85.65;100571.03;4940645;28;19918;-79
2022/10/14 09:32:36;;;;;;;;;;;17.30;99.90;;;16.68;82.38;100568.84;4933324;28;20352;-79
2022/10/14 09:35:02;;;;;;;;;;;17.70;99.90;;;16.87;77.73;100559.38;4929896;28;20013;-83
2022/10/14 09:37:33;;;;;;;;;;;18.20;99.90;;;16.74;79.19;100574.41;4935622;28;20278;-85
2022/10/14 09:40:18;;;;;;;;;;;18.50;99.90;;;16.87;76.50;100564.88;4940016;28;19919;-81
2022/10/14 09:42:54;;;;;;;;;;;18.70;99.90;;;16.76;77.32;100570.31;4929569;28;19985;-79
2022/10/14 09:45:22;;;;;;;;;;;18.80;99.90;;;16.81;77.52;100567.59;4927323;28;19922;-79
2022/10/14 09:47:55;;;;;;;;;;;18.50;99.90;;;17.35;75.17;100571.38;4925945;28;19911;-79
2022/10/14 09:50:34;;;;;;;;;;;19.10;99.90;;;18.70;71.29;100569.28;4931108;28;19929;-78
2022/10/14 09:53:03;;;;;;;;;;;20.30;99.90;;;19.40;66.12;100562.41;4937205;28;20270;-81
2022/10/14 09:55:30;;;;;;;;;;;21.30;99.90;;;18.99;65.11;100566.03;4932886;28;19911;-77
2022/10/14 09:58:03;;;;;;;;;;;20.90;99.90;;;17.97;70.77;100559.91;4935365;28;20445;-81
2022/10/14 10:00:34;;;;;;;;;;;20.00;99.90;;;17.77;69.71;100560.59;4931779;28;20065;-80
2022/10/14 10:03:00;;;;;;;;;;;19.40;99.90;;;17.43;70.37;100564.56;4929634;28;19918;-79
2022/10/14 10:05:30;;;;;;;;;;;18.80;99.90;;;18.20;68.41;100555.06;4941938;28;20441;-79
2022/10/14 10:08:04;;;;;;;;;;;19.10;99.90;;;20.07;61.20;100548.44;4933975;28;19954;-79
2022/10/14 10:10:34;;;;;;;;;;;19.90;99.90;;;22.03;55.18;100545.22;4934656;28;19984;-82
2022/10/14 10:13:00;;;;;;;;;;;;;;;23.54;50.16;100558.53;4931747;28;19923;-80
2022/10/14 10:15:27;;;;;;;;;;;;;;;23.95;48.19;100559.69;4934475;28;20600;-79
2022/10/14 10:17:53;;;;;;;;;;;;;;;22.87;50.57;100553.25;4925189;28;19919;-78
2022/10/14 10:20:26;;;;;;;;;;;;;;;22.52;50.40;100556.28;4927865;28;19938;-78
2022/10/14 10:22:55;;;;;;;;;;;;;;;23.30;48.37;100541.16;4929008;28;19915;-79
2022/10/14 10:25:25;;;;;;;;;;;;;;;21.66;52.74;100535.66;4945243;28;19922;-80
2022/10/14 10:27:53;;;;;;;;;;;;;;;21.24;54.63;100533.25;4933679;28;19969;-83
2022/10/14 10:30:24;;;;;;;;;;;;;;;21.63;53.32;100525.94;4934186;28;20005;-80
2022/10/14 10:33:09;;;;;;;;;;;;;;;23.86;49.01;100525.31;4930822;28;19918;-81
2022/10/14 10:35:39;;;;;;;;;;;;;;;23.90;46.98;100520.78;4929431;28;21445;-77
2022/10/14 10:38:19;;;;;;;;;;;;;;;23.94;47.81;100523.78;4936131;28;19918;-79
2022/10/14 10:41:02;;;;;;;;;;;;;;;26.22;41.37;100520.91;4932175;28;19927;-80
2022/10/14 10:43:48;;;;;;;;;;;;;;;26.72;41.06;100528.00;4939087;28;20039;-79
2022/10/14 10:46:14;;;;;;;;;;;;;;;26.65;41.03;100514.50;4936526;28;19919;-83
2022/10/14 10:48:44;;;;;;;;;;;;;;;26.06;41.17;100515.72;4936051;28;19926;-81
2022/10/14 10:51:33;;;;;;;;;;;;;;;26.98;38.83;100515.97;4935752;28;19923;-81
2022/10/14 10:54:22;;;;;;;;;;;;;;;27.38;37.59;100507.31;4930527;28;19914;-83
2022/10/14 10:57:00;;;;;;;;;;;;;;;26.21;39.66;100503.28;4932384;28;19929;-79
2022/10/14 10:59:39;;;;;;;;;;;;;;;21.44;49.83;100500.91;4929923;28;19923;-78
2022/10/14 11:02:23;;;;;;;;;;;;;;;20.27;55.79;100503.19;4943068;28;20001;-82
2022/10/14 11:04:55;;;;;;;;;;;;;;;20.30;55.53;100490.72;4926673;28;19923;-81
2022/10/14 11:12:53;;;;;;;;;;;;;;;21.21;53.01;100488.63;4933356;28;20009;-81
2022/10/14 11:15:52;;;;;;;;;;;;;;;22.08;49.29;100474.88;4933002;28;19950;-81
2022/10/14 11:18:20;;;;;;;;;;;;;;;22.04;50.57;100476.63;4955660;28;19922;-82
2022/10/14 11:20:56;;;;;;;;;;;;;;;22.03;50.50;100473.00;4935849;28;19918;-80
2022/10/14 11:23:55;;;;;;;;;;;21.50;99.50;;;20.79;52.26;100479.81;4928802;28;19945;-76
2022/10/14 11:26:52;;;;;;;;;;;23.10;83.40;;;21.63;50.94;100466.84;4936637;28;19919;-81
2022/10/14 11:29:21;;;;;;;;;;;;;;;23.47;46.76;100469.00;4929995;28;19917;-81
2022/10/14 11:31:55;;;;;;;;;;;;;;;24.94;42.53;100462.72;4928517;28;19922;-86
2022/10/14 11:34:40;;;;;;;;;;;;;;;23.87;45.43;100457.38;4942827;28;19989;-82